Página principal
METAR-TAF:

METAR-TAF

Aeroportos :

Aeroporto Internacional do Bahrain

Bahrein, Bahrein

latitude: 26-16N, longitude: 050-39E, altura: 2 m

Observação actual do tempo

O boletim foi feito há 30 minutos, às 11:30 UTC
Vento 6 kt de oes-noroeste, variando entre oeste e nor-noroeste
Temperatura 26°C
Humidade 70%
Pressão 1009 hPa
Visibilidade: 7000 m

METAR: OBBI 261130Z 29006KT 270V330 7000 NSC 26/20 Q1009 NOSIG

Hora: 15:00 (12:00 UTC)

Previsão

O boletim foi feito há 1 hora e 0 minutos, às 11:00 UTC
Previsão válida de 26 às 12 UTC a 27 às 18 UTC
Vento 12 kt de nordeste
Visibilidade: 8000 m
Probabilidade 30% :
Temporariamente
de 26 às 12 UTC a 26 às 15 UTC
Vento 20 kt com direcção variável com rajadas de 35 kt
Visibilidade: 3000 m
Nuvens dispersasa uma altura de 3000 ft, Cumulonimbus.
Nuvens fragmentadasa uma altura de 8000 ft
trovoada, chuva

TAF: OBBI 261100Z 2612/2718 04012KT 8000 NSC PROB30 TEMPO 2612/2615 VRB20G35KT 3000 TSRA SCT030CB BKN080

Observações e previsões do tempo de mais de 4000 aeroportos (mensagens METAR e TAF).

As estações disponíveis são os pontos amarelos e vermelhos sobre o mapa.

Mova o rato sobre o mapa para ver o nome da estação.

Depois clique no ponto para visualizar as observações e previsões meteorológicas.

Para alterar o mapa : clique nos botões verdes com uma cruz preta para aumentar o zoom; no botão verde com uma pitada de zoom; ou nas setas verdes para mapas adjacentes.


METAR-TAF: